This is the latest recevied weather packets stored in our database for station/object KB3MVG-13. If no packets are shown the sender has not sent any weather packets the latest 10 day(s).
| Time | Temp. | Humidity | Pressure | Rain* | Wind** | Luminosity | Snow |
|---|---|---|---|---|---|---|---|
| 1777597215 | 6.11° C | 62% | 1023.9 hPa | 0 mm | - | 54 W/m² | - |
| 1777596615 | 6.11° C | 63% | 1023.9 hPa | 0 mm | - | 48 W/m² | - |
| 1777593015 | 6.11° C | 63% | 1023.7 hPa | 0 mm | - | 28 W/m² | - |
| 1777591835 | 6.11° C | 62% | 1024.1 hPa | 0 mm | - | 28 W/m² | - |
| 1777585815 | 6.11° C | 61% | 1023.9 hPa | 0 mm | - | 211 W/m² | - |
| 1777584635 | 6.11° C | 62% | 1024.2 hPa | 0 mm | - | 270 W/m² | - |
| 1777582235 | 5.56° C | 61% | 1024.4 hPa | 0 mm | - | 207 W/m² | - |
| 1777580435 | 5.56° C | 59% | 1024.3 hPa | 0 mm | - | 131 W/m² | - |
| 1777579815 | 5.56° C | 63% | 1024.4 hPa | 0 mm | - | 202 W/m² | - |
| 1777576215 | 5° C | 63% | 1023.9 hPa | 0 mm | - | 220 W/m² | - |
| 1777572615 | 6.11° C | 62% | 1024.3 hPa | 0 mm | - | 395 W/m² | - |
| 1777572055 | 5.56° C | 59% | 1023.9 hPa | 0 mm | - | 262 W/m² | - |
| 1777570817 | 5.56° C | 59% | 1024.5 hPa | 0 mm | - | 285 W/m² | - |
| 1777566017 | 5° C | 60% | 1024.5 hPa | 0 mm | - | 317 W/m² | - |
| 1777564217 | 4.44° C | 60% | 1023.9 hPa | 0 mm | - | 188 W/m² | - |
| 1777563793 | 4.44° C | 60% | 1023.8 hPa | 0 mm | - | 176 W/m² | - |
| 1777552557 | 4.44° C | 63% | 1023.9 hPa | 0 mm | - | 15 W/m² | - |
| 1777551337 | 5° C | 62% | 1023.7 hPa | 0 mm | - | 0 W/m² | - |
| 1777544716 | 5.56° C | 78% | 1024.5 hPa | 0 mm | - | 0 W/m² | - |
| 1777540537 | 5.56° C | 69% | 1023.3 hPa | 0 mm | - | 0 W/m² | - |
| 1777539316 | 5.56° C | 68% | 1022.8 hPa | 0 mm | - | 0 W/m² | - |
| 1777532116 | 5° C | 83% | 1025.5 hPa | 0.25 mm | - | 0 W/m² | - |
| 1777530916 | 5° C | 84% | 1025.7 hPa | 0.25 mm | - | 0 W/m² | - |
| 1777527316 | 6.11° C | 75% | 1025.8 hPa | 0 mm | - | 0 W/m² | - |
| 1777526136 | 6.11° C | 72% | 1025.7 hPa | 0 mm | - | 0 W/m² | - |
* Rain latest hour (hover to see other rain measurements)
** Current wind speed in m/s (hover to see current wind gust speed)